VVDN/DAD METAR and TAF weather

Enter ICAO airport designator
Station Type Date Time Source
VVDN METAR 2021/01/20 23:00 UTC NOAA

VVDN 202300Z VRB01KT 6000 FEW015 BKN050 21/19 Q1014 NOSIG


Station Type Date Time Source
VVDN Decoded METAR 2021/01/20 23:00 UTC NOAA

Da Nang, Vietnam (VVDN) 16-02N 108-11E 7M
Jan 20, 2021 - 06:00 PM EST / 2021.01.20 2300 UTC
Wind: Variable at 1 MPH (1 KT):0
Visibility: 3 mile(s):0
Sky conditions: mostly cloudy
Temperature: 69 F (21 C)
Dew Point: 66 F (19 C)
Relative Humidity: 88%
Pressure (altimeter): 29.94 in. Hg (1014 hPa)
ob: VVDN 202300Z VRB01KT 6000 FEW015 BKN050 21/19 Q1014 NOSIG
cycle: 23

Station Type Date Time Source
VVDN TAF 2021/01/20 18:36 UTC NOAA

TAF VVDN 201700Z 2018/2118 32006KT 6000 FEW015 BKN050
BECMG 2019/2021 4000 BR
BECMG 2100/2101 7000 NSW

Example: see airport list